sensor_id;sensor_type;location;lat;lon;timestamp;P1;durP1;ratioP1;P2;durP2;ratioP2
12038;SDS011;6080;48.818;9.526;2023-05-14T03:01:31;8.20;;;7.60;;
12038;SDS011;6080;48.818;9.526;2023-05-14T03:03:57;9.87;;;9.07;;
12038;SDS011;6080;48.818;9.526;2023-05-14T03:06:22;12.73;;;11.63;;
12038;SDS011;6080;48.818;9.526;2023-05-14T03:08:48;21.37;;;20.13;;
12038;SDS011;6080;48.818;9.526;2023-05-14T03:11:14;22.47;;;21.17;;
12038;SDS011;6080;48.818;9.526;2023-05-14T03:13:39;27.10;;;25.60;;
12038;SDS011;6080;48.818;9.526;2023-05-14T03:16:05;32.77;;;31.03;;
12038;SDS011;6080;48.818;9.526;2023-05-14T03:18:31;37.77;;;35.80;;
12038;SDS011;6080;48.818;9.526;2023-05-14T03:20:58;38.90;;;36.43;;
12038;SDS011;6080;48.818;9.526;2023-05-14T03:23:24;36.00;;;34.03;;
12038;SDS011;6080;48.818;9.526;2023-05-14T03:25:50;30.77;;;28.67;;
12038;SDS011;6080;48.818;9.526;2023-05-14T03:28:17;24.87;;;23.27;;
12038;SDS011;6080;48.818;9.526;2023-05-14T03:30:42;19.10;;;18.00;;
12038;SDS011;6080;48.818;9.526;2023-05-14T03:33:08;19.37;;;18.20;;
12038;SDS011;6080;48.818;9.526;2023-05-14T03:35:34;18.20;;;16.80;;
12038;SDS011;6080;48.818;9.526;2023-05-14T03:38:00;13.23;;;12.47;;
12038;SDS011;6080;48.818;9.526;2023-05-14T03:40:26;10.37;;;9.67;;
12038;SDS011;6080;48.818;9.526;2023-05-14T03:42:51;9.83;;;8.93;;
12038;SDS011;6080;48.818;9.526;2023-05-14T03:45:17;8.87;;;8.17;;
12038;SDS011;6080;48.818;9.526;2023-05-14T03:47:43;9.37;;;8.40;;
12038;SDS011;6080;48.818;9.526;2023-05-14T03:50:09;9.60;;;8.80;;
12038;SDS011;6080;48.818;9.526;2023-05-14T03:52:34;8.77;;;8.17;;
12038;SDS011;6080;48.818;9.526;2023-05-14T03:55:00;8.63;;;8.03;;
12038;SDS011;6080;48.818;9.526;2023-05-14T03:57:26;8.83;;;8.13;;
12038;SDS011;6080;48.818;9.526;2023-05-14T03:59:52;8.20;;;7.60;;
12038;SDS011;6080;48.818;9.526;2023-05-14T04:02:18;8.60;;;7.80;;
12038;SDS011;6080;48.818;9.526;2023-05-14T04:04:44;8.63;;;7.93;;
12038;SDS011;6080;48.818;9.526;2023-05-14T04:07:09;9.20;;;8.30;;
12038;SDS011;6080;48.818;9.526;2023-05-14T04:09:35;8.60;;;7.90;;
12038;SDS011;6080;48.818;9.526;2023-05-14T04:12:01;9.40;;;8.60;;
12038;SDS011;6080;48.818;9.526;2023-05-14T04:14:27;8.50;;;7.90;;
12038;SDS011;6080;48.818;9.526;2023-05-14T04:16:52;9.37;;;8.47;;
12038;SDS011;6080;48.818;9.526;2023-05-14T04:19:18;8.70;;;8.00;;
12038;SDS011;6080;48.818;9.526;2023-05-14T04:21:44;9.40;;;8.57;;
12038;SDS011;6080;48.818;9.526;2023-05-14T04:24:10;8.93;;;8.13;;
12038;SDS011;6080;48.818;9.526;2023-05-14T04:26:35;8.70;;;7.87;;
12038;SDS011;6080;48.818;9.526;2023-05-14T04:29:01;9.27;;;8.50;;
12038;SDS011;6080;48.818;9.526;2023-05-14T04:31:30;8.43;;;7.80;;
12038;SDS011;6080;48.818;9.526;2023-05-14T04:33:56;9.63;;;7.90;;
12038;SDS011;6080;48.818;9.526;2023-05-14T04:36:22;7.97;;;7.37;;
12038;SDS011;6080;48.818;9.526;2023-05-14T04:38:47;8.23;;;7.53;;
12038;SDS011;6080;48.818;9.526;2023-05-14T04:41:13;9.27;;;8.13;;
12038;SDS011;6080;48.818;9.526;2023-05-14T04:43:39;8.30;;;7.60;;
12038;SDS011;6080;48.818;9.526;2023-05-14T04:46:05;9.10;;;8.50;;
12038;SDS011;6080;48.818;9.526;2023-05-14T04:48:31;8.77;;;8.07;;
12038;SDS011;6080;48.818;9.526;2023-05-14T04:50:57;9.17;;;8.47;;
12038;SDS011;6080;48.818;9.526;2023-05-14T04:53:22;10.67;;;9.77;;
12038;SDS011;6080;48.818;9.526;2023-05-14T04:55:48;9.63;;;8.83;;
12038;SDS011;6080;48.818;9.526;2023-05-14T04:58:14;10.17;;;9.40;;
12038;SDS011;6080;48.818;9.526;2023-05-14T05:00:40;9.00;;;8.30;;
12038;SDS011;6080;48.818;9.526;2023-05-14T05:03:05;9.17;;;8.47;;
12038;SDS011;6080;48.818;9.526;2023-05-14T05:05:31;10.13;;;9.33;;
12038;SDS011;6080;48.818;9.526;2023-05-14T05:07:57;9.90;;;9.10;;
12038;SDS011;6080;48.818;9.526;2023-05-14T05:10:23;11.13;;;10.33;;
12038;SDS011;6080;48.818;9.526;2023-05-14T05:12:49;10.57;;;9.63;;
12038;SDS011;6080;48.818;9.526;2023-05-14T05:15:14;10.87;;;9.90;;
12038;SDS011;6080;48.818;9.526;2023-05-14T05:17:40;10.13;;;9.33;;
12038;SDS011;6080;48.818;9.526;2023-05-14T05:20:07;10.67;;;9.90;;
12038;SDS011;6080;48.818;9.526;2023-05-14T05:22:34;14.07;;;13.07;;
12038;SDS011;6080;48.818;9.526;2023-05-14T05:25:01;16.30;;;15.20;;
12038;SDS011;6080;48.818;9.526;2023-05-14T05:27:30;17.67;;;16.50;;
12038;SDS011;6080;48.818;9.526;2023-05-14T05:29:57;19.00;;;17.50;;
12038;SDS011;6080;48.818;9.526;2023-05-14T05:32:25;22.60;;;19.67;;
12038;SDS011;6080;48.818;9.526;2023-05-14T05:34:51;17.83;;;16.13;;
12038;SDS011;6080;48.818;9.526;2023-05-14T05:37:16;13.70;;;12.40;;
12038;SDS011;6080;48.818;9.526;2023-05-14T05:39:42;12.90;;;11.80;;
12038;SDS011;6080;48.818;9.526;2023-05-14T05:42:08;12.03;;;11.10;;
12038;SDS011;6080;48.818;9.526;2023-05-14T05:44:34;12.13;;;11.30;;
12038;SDS011;6080;48.818;9.526;2023-05-14T05:47:00;11.97;;;10.97;;
12038;SDS011;6080;48.818;9.526;2023-05-14T05:49:26;13.87;;;12.77;;
12038;SDS011;6080;48.818;9.526;2023-05-14T05:51:51;13.50;;;12.10;;
12038;SDS011;6080;48.818;9.526;2023-05-14T05:54:17;13.50;;;12.40;;
12038;SDS011;6080;48.818;9.526;2023-05-14T05:56:43;14.13;;;13.03;;
12038;SDS011;6080;48.818;9.526;2023-05-14T05:59:09;13.37;;;12.27;;
12038;SDS011;6080;48.818;9.526;2023-05-14T06:01:34;11.30;;;10.03;;
12038;SDS011;6080;48.818;9.526;2023-05-14T06:04:00;12.30;;;11.20;;
12038;SDS011;6080;48.818;9.526;2023-05-14T06:06:28;9.33;;;8.50;;
12038;SDS011;6080;48.818;9.526;2023-05-14T06:08:53;10.40;;;8.87;;
12038;SDS011;6080;48.818;9.526;2023-05-14T06:11:19;10.80;;;9.80;;
12038;SDS011;6080;48.818;9.526;2023-05-14T06:13:45;10.50;;;9.30;;
12038;SDS011;6080;48.818;9.526;2023-05-14T06:16:11;13.57;;;12.27;;
12038;SDS011;6080;48.818;9.526;2023-05-14T06:18:37;13.60;;;12.70;;
12038;SDS011;6080;48.818;9.526;2023-05-14T06:21:03;15.03;;;13.83;;
12038;SDS011;6080;48.818;9.526;2023-05-14T06:23:28;16.33;;;15.20;;
12038;SDS011;6080;48.818;9.526;2023-05-14T06:25:54;25.23;;;23.60;;
12038;SDS011;6080;48.818;9.526;2023-05-14T06:28:20;23.60;;;22.23;;
12038;SDS011;6080;48.818;9.526;2023-05-14T06:30:48;18.03;;;16.83;;
12038;SDS011;6080;48.818;9.526;2023-05-14T06:33:14;11.97;;;10.83;;
12038;SDS011;6080;48.818;9.526;2023-05-14T06:35:40;11.07;;;10.17;;
12038;SDS011;6080;48.818;9.526;2023-05-14T06:38:05;9.40;;;8.70;;
12038;SDS011;6080;48.818;9.526;2023-05-14T06:40:31;9.37;;;8.47;;
12038;SDS011;6080;48.818;9.526;2023-05-14T06:42:57;9.60;;;8.80;;
12038;SDS011;6080;48.818;9.526;2023-05-14T06:45:22;10.77;;;9.77;;
12038;SDS011;6080;48.818;9.526;2023-05-14T06:47:48;11.10;;;10.20;;
12038;SDS011;6080;48.818;9.526;2023-05-14T06:50:14;10.93;;;9.93;;
12038;SDS011;6080;48.818;9.526;2023-05-14T06:52:40;9.97;;;9.07;;
12038;SDS011;6080;48.818;9.526;2023-05-14T06:55:07;10.60;;;9.50;;
12038;SDS011;6080;48.818;9.526;2023-05-14T06:57:33;10.27;;;9.47;;
12038;SDS011;6080;48.818;9.526;2023-05-14T06:59:59;9.93;;;9.03;;
12038;SDS011;6080;48.818;9.526;2023-05-14T07:02:25;11.47;;;10.37;;
12038;SDS011;6080;48.818;9.526;2023-05-14T07:04:50;10.27;;;9.47;;
12038;SDS011;6080;48.818;9.526;2023-05-14T07:07:16;11.97;;;10.97;;
12038;SDS011;6080;48.818;9.526;2023-05-14T07:09:44;14.97;;;13.77;;
12038;SDS011;6080;48.818;9.526;2023-05-14T07:12:10;14.27;;;12.80;;
12038;SDS011;6080;48.818;9.526;2023-05-14T07:14:36;13.10;;;12.20;;
12038;SDS011;6080;48.818;9.526;2023-05-14T07:17:02;15.97;;;14.77;;
12038;SDS011;6080;48.818;9.526;2023-05-14T07:19:28;18.13;;;16.73;;
12038;SDS011;6080;48.818;9.526;2023-05-14T07:21:55;19.47;;;18.17;;
12038;SDS011;6080;48.818;9.526;2023-05-14T07:24:21;19.63;;;18.13;;
12038;SDS011;6080;48.818;9.526;2023-05-14T07:26:47;22.37;;;20.97;;
12038;SDS011;6080;48.818;9.526;2023-05-14T07:29:13;19.87;;;18.50;;
12038;SDS011;6080;48.818;9.526;2023-05-14T07:31:39;20.47;;;19.07;;
12038;SDS011;6080;48.818;9.526;2023-05-14T07:34:04;20.30;;;19.00;;
12038;SDS011;6080;48.818;9.526;2023-05-14T07:36:31;19.80;;;18.40;;
12038;SDS011;6080;48.818;9.526;2023-05-14T07:38:57;18.63;;;17.27;;
12038;SDS011;6080;48.818;9.526;2023-05-14T07:41:23;16.30;;;15.10;;
12038;SDS011;6080;48.818;9.526;2023-05-14T07:43:49;12.40;;;11.40;;
12038;SDS011;6080;48.818;9.526;2023-05-14T07:46:15;19.40;;;18.10;;
12038;SDS011;6080;48.818;9.526;2023-05-14T07:48:40;26.70;;;24.93;;
12038;SDS011;6080;48.818;9.526;2023-05-14T07:51:06;48.87;;;46.10;;
12038;SDS011;6080;48.818;9.526;2023-05-14T07:53:32;28.60;;;26.93;;
12038;SDS011;6080;48.818;9.526;2023-05-14T07:55:57;11.47;;;9.13;;
12038;SDS011;6080;48.818;9.526;2023-05-14T07:58:24;9.13;;;8.43;;
12038;SDS011;6080;48.818;9.526;2023-05-14T08:00:51;9.35;;;8.63;;
12038;SDS011;6080;48.818;9.526;2023-05-14T08:03:17;15.20;;;14.20;;
12038;SDS011;6080;48.818;9.526;2023-05-14T08:05:43;14.90;;;13.88;;
12038;SDS011;6080;48.818;9.526;2023-05-14T08:08:09;25.20;;;23.58;;
12038;SDS011;6080;48.818;9.526;2023-05-14T08:10:36;19.17;;;17.83;;
12038;SDS011;6080;48.818;9.526;2023-05-14T08:13:02;16.30;;;15.15;;
12038;SDS011;6080;48.818;9.526;2023-05-14T08:15:28;10.90;;;10.00;;
12038;SDS011;6080;48.818;9.526;2023-05-14T08:17:54;10.40;;;9.60;;
12038;SDS011;6080;48.818;9.526;2023-05-14T08:20:20;9.20;;;8.50;;
12038;SDS011;6080;48.818;9.526;2023-05-14T08:22:46;10.18;;;9.20;;
12038;SDS011;6080;48.818;9.526;2023-05-14T08:25:12;8.23;;;7.63;;
12038;SDS011;6080;48.818;9.526;2023-05-14T08:27:37;9.48;;;8.63;;
12038;SDS011;6080;48.818;9.526;2023-05-14T08:30:04;10.50;;;9.70;;
12038;SDS011;6080;48.818;9.526;2023-05-14T08:32:30;13.25;;;12.45;;
12038;SDS011;6080;48.818;9.526;2023-05-14T08:34:56;12.50;;;11.48;;
12038;SDS011;6080;48.818;9.526;2023-05-14T08:37:21;13.40;;;12.40;;
12038;SDS011;6080;48.818;9.526;2023-05-14T08:39:47;11.43;;;10.63;;
12038;SDS011;6080;48.818;9.526;2023-05-14T08:42:13;13.40;;;12.25;;
12038;SDS011;6080;48.818;9.526;2023-05-14T08:44:46;12.73;;;11.82;;
12038;SDS011;6080;48.818;9.526;2023-05-14T08:47:17;13.00;;;12.00;;
12038;SDS011;6080;48.818;9.526;2023-05-14T08:49:45;13.82;;;12.93;;
12038;SDS011;6080;48.818;9.526;2023-05-14T08:52:13;13.60;;;12.70;;
12038;SDS011;6080;48.818;9.526;2023-05-14T08:54:40;14.63;;;13.55;;
12038;SDS011;6080;48.818;9.526;2023-05-14T08:57:08;11.90;;;10.90;;
12038;SDS011;6080;48.818;9.526;2023-05-14T08:59:35;14.10;;;13.20;;
12038;SDS011;6080;48.818;9.526;2023-05-14T09:02:01;13.13;;;12.23;;
12038;SDS011;6080;48.818;9.526;2023-05-14T09:04:31;13.70;;;12.68;;
12038;SDS011;6080;48.818;9.526;2023-05-14T09:06:58;12.70;;;11.68;;
12038;SDS011;6080;48.818;9.526;2023-05-14T09:09:26;15.65;;;14.50;;
12038;SDS011;6080;48.818;9.526;2023-05-14T09:11:52;12.70;;;11.90;;
12038;SDS011;6080;48.818;9.526;2023-05-14T09:14:18;13.55;;;12.48;;
12038;SDS011;6080;48.818;9.526;2023-05-14T09:16:45;14.20;;;13.20;;
12038;SDS011;6080;48.818;9.526;2023-05-14T09:19:13;13.18;;;12.32;;
12038;SDS011;6080;48.818;9.526;2023-05-14T09:21:40;10.83;;;9.90;;
12038;SDS011;6080;48.818;9.526;2023-05-14T09:24:06;10.70;;;9.68;;
12038;SDS011;6080;48.818;9.526;2023-05-14T09:26:33;11.90;;;11.10;;
12038;SDS011;6080;48.818;9.526;2023-05-14T09:28:59;13.20;;;12.02;;
12038;SDS011;6080;48.818;9.526;2023-05-14T09:31:26;13.45;;;12.63;;
12038;SDS011;6080;48.818;9.526;2023-05-14T09:33:54;12.95;;;12.00;;
12038;SDS011;6080;48.818;9.526;2023-05-14T09:36:20;14.00;;;13.00;;
12038;SDS011;6080;48.818;9.526;2023-05-14T09:38:46;12.32;;;11.52;;
12038;SDS011;6080;48.818;9.526;2023-05-14T09:41:12;9.25;;;8.57;;
12038;SDS011;6080;48.818;9.526;2023-05-14T09:43:37;8.25;;;7.65;;
12038;SDS011;6080;48.818;9.526;2023-05-14T09:46:03;8.73;;;8.10;;
12038;SDS011;6080;48.818;9.526;2023-05-14T09:48:29;10.45;;;9.77;;
12038;SDS011;6080;48.818;9.526;2023-05-14T09:50:55;10.00;;;9.38;;
12038;SDS011;6080;48.818;9.526;2023-05-14T09:53:20;11.55;;;10.80;;
12038;SDS011;6080;48.818;9.526;2023-05-14T09:55:46;8.60;;;8.07;;
12038;SDS011;6080;48.818;9.526;2023-05-14T09:58:13;8.25;;;7.75;;
12038;SDS011;6080;48.818;9.526;2023-05-14T10:00:40;11.15;;;10.32;;
12038;SDS011;6080;48.818;9.526;2023-05-14T10:03:12;15.63;;;14.50;;
12038;SDS011;6080;48.818;9.526;2023-05-14T10:05:39;13.10;;;12.40;;
12038;SDS011;6080;48.818;9.526;2023-05-14T10:08:16;17.58;;;16.48;;
12038;SDS011;6080;48.818;9.526;2023-05-14T10:10:49;8.75;;;8.00;;
12038;SDS011;6080;48.818;9.526;2023-05-14T10:13:17;12.07;;;11.18;;
12038;SDS011;6080;48.818;9.526;2023-05-14T10:18:24;8.45;;;8.00;;
12038;SDS011;6080;48.818;9.526;2023-05-14T10:20:55;7.63;;;7.03;;
12038;SDS011;6080;48.818;9.526;2023-05-14T10:23:32;11.13;;;10.43;;
12038;SDS011;6080;48.818;9.526;2023-05-14T10:26:02;11.25;;;9.40;;
12038;SDS011;6080;48.818;9.526;2023-05-14T10:28:28;8.00;;;7.38;;
12038;SDS011;6080;48.818;9.526;2023-05-14T10:30:55;9.02;;;8.40;;
12038;SDS011;6080;48.818;9.526;2023-05-14T10:33:21;13.30;;;12.43;;
12038;SDS011;6080;48.818;9.526;2023-05-14T10:36:00;17.73;;;16.73;;
12038;SDS011;6080;48.818;9.526;2023-05-14T10:38:36;16.52;;;15.43;;
12038;SDS011;6080;48.818;9.526;2023-05-14T10:41:05;11.05;;;10.50;;
12038;SDS011;6080;48.818;9.526;2023-05-14T10:43:38;10.82;;;10.13;;
12038;SDS011;6080;48.818;9.526;2023-05-14T10:46:05;7.63;;;7.03;;
12038;SDS011;6080;48.818;9.526;2023-05-14T10:48:32;10.80;;;8.88;;
12038;SDS011;6080;48.818;9.526;2023-05-14T10:50:59;9.05;;;8.55;;
12038;SDS011;6080;48.818;9.526;2023-05-14T10:53:30;12.35;;;11.70;;
12038;SDS011;6080;48.818;9.526;2023-05-14T10:55:57;14.00;;;13.20;;
12038;SDS011;6080;48.818;9.526;2023-05-14T10:58:30;11.15;;;10.45;;
12038;SDS011;6080;48.818;9.526;2023-05-14T11:00:59;10.80;;;10.20;;
12038;SDS011;6080;48.818;9.526;2023-05-14T11:03:29;14.50;;;13.70;;
12038;SDS011;6080;48.818;9.526;2023-05-14T11:05:58;8.95;;;8.45;;
12038;SDS011;6080;48.818;9.526;2023-05-14T11:08:27;10.18;;;9.38;;
12038;SDS011;6080;48.818;9.526;2023-05-14T11:10:55;15.25;;;14.25;;
12038;SDS011;6080;48.818;9.526;2023-05-14T11:13:21;12.02;;;11.38;;
12038;SDS011;6080;48.818;9.526;2023-05-14T11:15:47;10.05;;;9.50;;
12038;SDS011;6080;48.818;9.526;2023-05-14T11:18:24;12.93;;;12.23;;
12038;SDS011;6080;48.818;9.526;2023-05-14T11:20:51;9.07;;;8.48;;
12038;SDS011;6080;48.818;9.526;2023-05-14T11:23:17;8.70;;;8.20;;
12038;SDS011;6080;48.818;9.526;2023-05-14T11:25:43;10.32;;;9.70;;
12038;SDS011;6080;48.818;9.526;2023-05-14T11:28:09;10.48;;;9.88;;
12038;SDS011;6080;48.818;9.526;2023-05-14T11:30:34;11.57;;;10.98;;
12038;SDS011;6080;48.818;9.526;2023-05-14T11:33:00;10.68;;;10.07;;
12038;SDS011;6080;48.818;9.526;2023-05-14T11:35:26;10.05;;;9.45;;
12038;SDS011;6080;48.818;9.526;2023-05-14T11:37:52;12.48;;;11.65;;
12038;SDS011;6080;48.818;9.526;2023-05-14T11:40:18;11.77;;;11.07;;
12038;SDS011;6080;48.818;9.526;2023-05-14T11:42:44;12.07;;;11.40;;
12038;SDS011;6080;48.818;9.526;2023-05-14T11:45:10;10.68;;;10.07;;
12038;SDS011;6080;48.818;9.526;2023-05-14T11:47:37;7.88;;;7.38;;
12038;SDS011;6080;48.818;9.526;2023-05-14T11:50:03;11.25;;;10.30;;
12038;SDS011;6080;48.818;9.526;2023-05-14T11:52:29;13.65;;;12.63;;
12038;SDS011;6080;48.818;9.526;2023-05-14T11:54:55;9.32;;;8.73;;
12038;SDS011;6080;48.818;9.526;2023-05-14T11:57:21;9.63;;;8.93;;
12038;SDS011;6080;48.818;9.526;2023-05-14T11:59:47;11.98;;;11.27;;
12038;SDS011;6080;48.818;9.526;2023-05-14T12:02:18;11.55;;;10.85;;
12038;SDS011;6080;48.818;9.526;2023-05-14T12:04:48;11.95;;;11.00;;
12038;SDS011;6080;48.818;9.526;2023-05-14T12:07:15;13.27;;;12.18;;
12038;SDS011;6080;48.818;9.526;2023-05-14T12:09:43;11.30;;;10.68;;
12038;SDS011;6080;48.818;9.526;2023-05-14T12:12:19;12.20;;;11.45;;
12038;SDS011;6080;48.818;9.526;2023-05-14T12:14:46;11.75;;;10.75;;
12038;SDS011;6080;48.818;9.526;2023-05-14T12:17:17;10.07;;;9.48;;
12038;SDS011;6080;48.818;9.526;2023-05-14T12:19:44;13.18;;;12.07;;
12038;SDS011;6080;48.818;9.526;2023-05-14T12:22:19;9.65;;;9.05;;
12038;SDS011;6080;48.818;9.526;2023-05-14T12:24:53;7.50;;;7.00;;
12038;SDS011;6080;48.818;9.526;2023-05-14T12:27:20;10.13;;;9.43;;
12038;SDS011;6080;48.818;9.526;2023-05-14T12:29:47;56.05;;;53.30;;
12038;SDS011;6080;48.818;9.526;2023-05-14T12:32:13;64.70;;;61.53;;
12038;SDS011;6080;48.818;9.526;2023-05-14T12:34:39;20.42;;;19.02;;
12038;SDS011;6080;48.818;9.526;2023-05-14T12:37:05;11.30;;;10.70;;
12038;SDS011;6080;48.818;9.526;2023-05-14T12:39:31;4.88;;;4.47;;
12038;SDS011;6080;48.818;9.526;2023-05-14T12:41:58;5.18;;;4.72;;
12038;SDS011;6080;48.818;9.526;2023-05-14T12:44:24;4.65;;;4.35;;
12038;SDS011;6080;48.818;9.526;2023-05-14T12:46:49;6.05;;;5.55;;
12038;SDS011;6080;48.818;9.526;2023-05-14T12:49:15;5.88;;;5.47;;
12038;SDS011;6080;48.818;9.526;2023-05-14T12:51:41;5.90;;;5.50;;
12038;SDS011;6080;48.818;9.526;2023-05-14T12:54:07;4.63;;;4.32;;
12038;SDS011;6080;48.818;9.526;2023-05-14T12:56:35;5.97;;;5.65;;
12038;SDS011;6080;48.818;9.526;2023-05-14T12:59:02;5.57;;;5.28;;
12038;SDS011;6080;48.818;9.526;2023-05-14T13:01:28;4.90;;;4.50;;
12038;SDS011;6080;48.818;9.526;2023-05-14T13:03:54;5.07;;;4.68;;
12038;SDS011;6080;48.818;9.526;2023-05-14T13:06:20;4.43;;;4.20;;
12038;SDS011;6080;48.818;9.526;2023-05-14T13:08:46;4.35;;;4.05;;
12038;SDS011;6080;48.818;9.526;2023-05-14T13:11:12;4.18;;;3.95;;
12038;SDS011;6080;48.818;9.526;2023-05-14T13:13:39;5.18;;;4.97;;
12038;SDS011;6080;48.818;9.526;2023-05-14T13:16:05;9.32;;;8.82;;
12038;SDS011;6080;48.818;9.526;2023-05-14T13:18:31;10.40;;;9.55;;
12038;SDS011;6080;48.818;9.526;2023-05-14T13:20:57;10.35;;;9.88;;
12038;SDS011;6080;48.818;9.526;2023-05-14T13:23:23;11.35;;;10.75;;
12038;SDS011;6080;48.818;9.526;2023-05-14T13:25:49;9.93;;;9.43;;
12038;SDS011;6080;48.818;9.526;2023-05-14T13:28:14;13.63;;;12.75;;
12038;SDS011;6080;48.818;9.526;2023-05-14T13:30:40;10.23;;;9.73;;
12038;SDS011;6080;48.818;9.526;2023-05-14T13:33:06;10.75;;;10.25;;
12038;SDS011;6080;48.818;9.526;2023-05-14T13:35:32;10.95;;;10.40;;
12038;SDS011;6080;48.818;9.526;2023-05-14T13:37:58;10.68;;;10.18;;
12038;SDS011;6080;48.818;9.526;2023-05-14T13:40:24;8.77;;;8.38;;
12038;SDS011;6080;48.818;9.526;2023-05-14T13:42:50;9.20;;;8.63;;
12038;SDS011;6080;48.818;9.526;2023-05-14T13:45:16;12.48;;;11.90;;
12038;SDS011;6080;48.818;9.526;2023-05-14T13:47:41;14.38;;;13.73;;
12038;SDS011;6080;48.818;9.526;2023-05-14T13:50:07;9.55;;;9.05;;
12038;SDS011;6080;48.818;9.526;2023-05-14T13:52:33;9.18;;;8.75;;
12038;SDS011;6080;48.818;9.526;2023-05-14T13:54:59;8.75;;;8.32;;
12038;SDS011;6080;48.818;9.526;2023-05-14T13:57:25;11.85;;;11.25;;
12038;SDS011;6080;48.818;9.526;2023-05-14T13:59:51;29.50;;;28.02;;
12038;SDS011;6080;48.818;9.526;2023-05-14T14:02:16;25.42;;;24.15;;
12038;SDS011;6080;48.818;9.526;2023-05-14T14:04:42;23.10;;;21.95;;
12038;SDS011;6080;48.818;9.526;2023-05-14T14:07:08;9.20;;;8.68;;
12038;SDS011;6080;48.818;9.526;2023-05-14T14:09:33;12.27;;;11.40;;
12038;SDS011;6080;48.818;9.526;2023-05-14T14:12:04;13.77;;;12.98;;
12038;SDS011;6080;48.818;9.526;2023-05-14T14:14:30;13.77;;;12.95;;
12038;SDS011;6080;48.818;9.526;2023-05-14T14:16:56;12.32;;;11.52;;
12038;SDS011;6080;48.818;9.526;2023-05-14T14:19:21;12.85;;;11.95;;
12038;SDS011;6080;48.818;9.526;2023-05-14T14:21:47;14.07;;;13.10;;
12038;SDS011;6080;48.818;9.526;2023-05-14T14:24:13;13.63;;;12.93;;
12038;SDS011;6080;48.818;9.526;2023-05-14T14:26:39;17.65;;;16.65;;
12038;SDS011;6080;48.818;9.526;2023-05-14T14:29:05;9.80;;;9.30;;
12038;SDS011;6080;48.818;9.526;2023-05-14T14:31:30;12.82;;;12.25;;
12038;SDS011;6080;48.818;9.526;2023-05-14T14:33:56;11.48;;;10.88;;
12038;SDS011;6080;48.818;9.526;2023-05-14T14:36:22;11.88;;;11.18;;
12038;SDS011;6080;48.818;9.526;2023-05-14T14:38:47;11.63;;;11.13;;
12038;SDS011;6080;48.818;9.526;2023-05-14T14:41:13;10.00;;;9.40;;
12038;SDS011;6080;48.818;9.526;2023-05-14T14:43:39;15.77;;;14.93;;
12038;SDS011;6080;48.818;9.526;2023-05-14T14:46:05;16.63;;;15.73;;
12038;SDS011;6080;48.818;9.526;2023-05-14T14:48:34;14.52;;;13.60;;
12038;SDS011;6080;48.818;9.526;2023-05-14T14:51:03;5.30;;;5.00;;
12038;SDS011;6080;48.818;9.526;2023-05-14T14:53:30;10.20;;;9.50;;
12038;SDS011;6080;48.818;9.526;2023-05-14T14:55:57;23.80;;;22.55;;
12038;SDS011;6080;48.818;9.526;2023-05-14T14:58:24;43.40;;;41.22;;
12038;SDS011;6080;48.818;9.526;2023-05-14T15:00:51;43.22;;;41.08;;
12038;SDS011;6080;48.818;9.526;2023-05-14T15:03:18;27.77;;;26.35;;
12038;SDS011;6080;48.818;9.526;2023-05-14T15:05:45;7.53;;;7.13;;
12038;SDS011;6080;48.818;9.526;2023-05-14T15:08:11;5.53;;;5.13;;
12038;SDS011;6080;48.818;9.526;2023-05-14T15:10:37;7.15;;;6.70;;
12038;SDS011;6080;48.818;9.526;2023-05-14T15:15:36;5.03;;;4.63;;
12038;SDS011;6080;48.818;9.526;2023-05-14T15:18:02;5.05;;;4.70;;
12038;SDS011;6080;48.818;9.526;2023-05-14T15:20:28;5.18;;;4.90;;
12038;SDS011;6080;48.818;9.526;2023-05-14T15:22:54;4.63;;;4.28;;
12038;SDS011;6080;48.818;9.526;2023-05-14T15:25:21;4.90;;;4.50;;
12038;SDS011;6080;48.818;9.526;2023-05-14T15:27:48;4.95;;;4.65;;
12038;SDS011;6080;48.818;9.526;2023-05-14T15:30:14;5.82;;;5.53;;
12038;SDS011;6080;48.818;9.526;2023-05-14T15:32:40;5.90;;;5.50;;
12038;SDS011;6080;48.818;9.526;2023-05-14T15:35:07;36.17;;;34.35;;
12038;SDS011;6080;48.818;9.526;2023-05-14T15:37:35;52.10;;;49.60;;
12038;SDS011;6080;48.818;9.526;2023-05-14T15:40:03;32.85;;;31.25;;
12038;SDS011;6080;48.818;9.526;2023-05-14T15:42:30;18.77;;;17.83;;
12038;SDS011;6080;48.818;9.526;2023-05-14T15:44:56;12.80;;;12.10;;
12038;SDS011;6080;48.818;9.526;2023-05-14T15:47:22;11.27;;;10.68;;
12038;SDS011;6080;48.818;9.526;2023-05-14T15:49:47;8.35;;;7.90;;
12038;SDS011;6080;48.818;9.526;2023-05-14T15:52:14;9.40;;;8.80;;
12038;SDS011;6080;48.818;9.526;2023-05-14T15:54:40;18.38;;;17.08;;
12038;SDS011;6080;48.818;9.526;2023-05-14T15:57:06;54.50;;;51.75;;
12038;SDS011;6080;48.818;9.526;2023-05-14T15:59:32;34.97;;;33.17;;
12038;SDS011;6080;48.818;9.526;2023-05-14T16:01:57;19.30;;;18.33;;
12038;SDS011;6080;48.818;9.526;2023-05-14T16:04:23;5.03;;;4.72;;
12038;SDS011;6080;48.818;9.526;2023-05-14T16:06:49;6.20;;;5.63;;
12038;SDS011;6080;48.818;9.526;2023-05-14T16:09:15;32.63;;;30.98;;
12038;SDS011;6080;48.818;9.526;2023-05-14T16:11:41;49.70;;;47.15;;
12038;SDS011;6080;48.818;9.526;2023-05-14T16:14:06;50.28;;;47.75;;
12038;SDS011;6080;48.818;9.526;2023-05-14T16:16:32;23.02;;;21.83;;
12038;SDS011;6080;48.818;9.526;2023-05-14T16:18:58;18.08;;;16.98;;
12038;SDS011;6080;48.818;9.526;2023-05-14T16:21:24;15.23;;;14.43;;
12038;SDS011;6080;48.818;9.526;2023-05-14T16:23:49;10.02;;;9.43;;
12038;SDS011;6080;48.818;9.526;2023-05-14T16:26:15;9.77;;;9.27;;
12038;SDS011;6080;48.818;9.526;2023-05-14T16:28:41;10.90;;;10.20;;
12038;SDS011;6080;48.818;9.526;2023-05-14T16:31:07;12.52;;;11.80;;
12038;SDS011;6080;48.818;9.526;2023-05-14T16:33:32;10.95;;;10.35;;
12038;SDS011;6080;48.818;9.526;2023-05-14T16:35:58;6.88;;;6.50;;
12038;SDS011;6080;48.818;9.526;2023-05-14T16:38:24;5.70;;;5.25;;
12038;SDS011;6080;48.818;9.526;2023-05-14T16:40:50;5.90;;;5.50;;
12038;SDS011;6080;48.818;9.526;2023-05-14T16:43:15;7.17;;;6.67;;
12038;SDS011;6080;48.818;9.526;2023-05-14T16:45:41;7.03;;;6.57;;
12038;SDS011;6080;48.818;9.526;2023-05-14T16:48:07;6.07;;;5.67;;
12038;SDS011;6080;48.818;9.526;2023-05-14T16:50:33;6.73;;;6.23;;
12038;SDS011;6080;48.818;9.526;2023-05-14T16:52:58;6.57;;;6.13;;
12038;SDS011;6080;48.818;9.526;2023-05-14T16:55:24;7.80;;;7.30;;
12038;SDS011;6080;48.818;9.526;2023-05-14T16:57:50;5.50;;;5.10;;
12038;SDS011;6080;48.818;9.526;2023-05-14T17:00:16;5.83;;;5.37;;
12038;SDS011;6080;48.818;9.526;2023-05-14T17:02:42;8.50;;;8.00;;
12038;SDS011;6080;48.818;9.526;2023-05-14T17:05:08;8.47;;;7.87;;
12038;SDS011;6080;48.818;9.526;2023-05-14T17:07:35;6.50;;;6.07;;
12038;SDS011;6080;48.818;9.526;2023-05-14T17:10:02;6.40;;;6.00;;
12038;SDS011;6080;48.818;9.526;2023-05-14T17:12:28;5.20;;;4.90;;
12038;SDS011;6080;48.818;9.526;2023-05-14T17:14:54;7.40;;;7.00;;
12038;SDS011;6080;48.818;9.526;2023-05-14T17:17:19;8.17;;;7.70;;
12038;SDS011;6080;48.818;9.526;2023-05-14T17:19:45;9.37;;;8.77;;
12038;SDS011;6080;48.818;9.526;2023-05-14T17:22:11;8.83;;;8.23;;
12038;SDS011;6080;48.818;9.526;2023-05-14T17:24:38;7.63;;;7.23;;
12038;SDS011;6080;48.818;9.526;2023-05-14T17:27:04;7.07;;;6.67;;
12038;SDS011;6080;48.818;9.526;2023-05-14T17:29:31;7.13;;;6.73;;
12038;SDS011;6080;48.818;9.526;2023-05-14T17:31:57;8.47;;;8.07;;
12038;SDS011;6080;48.818;9.526;2023-05-14T17:34:22;7.47;;;7.10;;
12038;SDS011;6080;48.818;9.526;2023-05-14T17:36:48;9.13;;;8.63;;
12038;SDS011;6080;48.818;9.526;2023-05-14T17:39:14;8.90;;;8.30;;
12038;SDS011;6080;48.818;9.526;2023-05-14T17:41:40;7.93;;;7.43;;
12038;SDS011;6080;48.818;9.526;2023-05-14T17:44:09;5.00;;;4.70;;
12038;SDS011;6080;48.818;9.526;2023-05-14T17:46:35;4.37;;;4.17;;